KGIF Airport (Winter Haven Rgnl) Information

FAA: GIF - ICAO: KGIF

KGIF Airport Location

State Florida
County Polk
City Winter Haven
KGIF Airport is 3 miles northwest of Winter Haven, FL.
Latitude 28-03-46.5000N
Longitude 081-45-11.9000W
Elevation 145ft

KGIF Airport METARs

METAR KGIF 240853Z AUTO 03007KT 10SM OVC041 24/21 A2994 RMK AO2 SLP136 T02440211 55007
Altimeter 29.94"
Temperature 24.4°C (75.9°F)
Wind 30° at 7KT
Clouds overcast at 4,100ft
Visibility 10.0mi
Time observed: 2021-09-24T08:53:00Z

KGIF Airport Details

Status Operational
Activation April 1940
Ownership Public
Usage Public
Chart JACKSONVILLE
ATC on-site No
Beacon schedule sunset-sunrise
Beacon color clear green

KGIF Airport Contacts

Owner CITY OF WINTER HAVEN
Owner address P.O. BOX 2277, WINTER HAVEN, FL 33883-2277
Owner phone 863-291-5600
Manager W. R. BROOCKE
Manager address P.O. BOX 116, WINTER BEACH, FL 32971
Manager phone 561-569-2358

KGIF Airport (Winter Haven Rgnl) Radio Frequencies

KGIF (Airport) Radio Frequencies

UNICOM 123.05
Common traffic advisory frequency (CTAF) 123.05